Overview Statistics Trail Chart Weather Telemetry Raw packets
 

This is the latest recevied weather packets stored in our database for station/object N0OQA. If no packets are shown the sender has not sent any weather packets the latest 10 day(s).

<< 17 18 19 20 21 22 23 >>
Time Temp. Humidity Pressure Rain* Wind** Luminosity Snow
1788436798 20.56° C 90% 1012.9 hPa 0 mm - - -
1788436197 20.56° C 90% 1012.9 hPa 0 mm - - -
1788430790 20° C 88% 1012.7 hPa 0 mm - - -
1788423583 21.11° C 81% 1012.8 hPa 0 mm - - -
1788422982 21.11° C 80% 1013.1 hPa 0 mm - - -
1788415774 22.22° C 75% 1013.7 hPa 0 mm - - -
1788415173 22.22° C 75% 1013.7 hPa 0 mm - - -
1788414572 22.22° C 74% 1013.7 hPa 0 mm - - -
1788412769 22.78° C 72% 1013.8 hPa 0 mm - - -
1788407663 23.33° C 67% 1014 hPa 0 mm - - -
1788406762 23.33° C 67% 1014 hPa 0 mm - - -
1788396849 26.67° C 56% 1013.3 hPa 0 mm - - -
1788395648 27.22° C 55% 1013.3 hPa 0 mm - - -
1788392044 28.33° C 49% 1013.1 hPa 0 mm - - -
1788389040 28.89° C 48% 1013.3 hPa 0 mm - - -
1788385737 30° C 46% 1013.6 hPa 0 mm - - -
1788385136 29.44° C 46% 1013.7 hPa 0 mm - - -
1788384836 30° C 45% 1013.8 hPa 0 mm - - -
1788382733 30° C 44% 1013.8 hPa 0 mm - - -
1788382433 30.56° C 43% 1013.8 hPa 0 mm - - -
1788370714 28.33° C 52% 1015.4 hPa 0 mm - - -
1788369813 27.78° C 52% 1015.6 hPa 0 mm - - -
1788368011 26.67° C 55% 1015.5 hPa 0 mm - - -
1788366810 25.56° C 64% 1015.6 hPa 0 mm - - -
1788364707 23.33° C 72% 1015.7 hPa 0 mm - - -

* Rain since midnight (hover to see other rain measurements)
** Current wind speed in m/s (hover to see current wind gust speed)